sensor_id;sensor_type;location;lat;lon;timestamp;pressure;altitude;pressure_sealevel;temperature;humidity
3434;BME280;1730;41.932;25.548;2022-08-05T00:00:57;99157.03;;;20.97;100.00
3434;BME280;1730;41.932;25.548;2022-08-05T00:03:23;99129.00;;;20.95;100.00
3434;BME280;1730;41.932;25.548;2022-08-05T00:05:49;99116.69;;;21.04;100.00
3434;BME280;1730;41.932;25.548;2022-08-05T00:08:14;99103.03;;;20.80;100.00
3434;BME280;1730;41.932;25.548;2022-08-05T00:10:40;99127.41;;;20.88;100.00
3434;BME280;1730;41.932;25.548;2022-08-05T00:13:07;98950.84;;;19.85;100.00
3434;BME280;1730;41.932;25.548;2022-08-05T00:15:33;98614.25;;;17.81;100.00
3434;BME280;1730;41.932;25.548;2022-08-05T00:17:58;99117.16;;;20.77;100.00
3434;BME280;1730;41.932;25.548;2022-08-05T00:20:24;99152.28;;;20.61;100.00
3434;BME280;1730;41.932;25.548;2022-08-05T00:22:50;99135.34;;;20.71;100.00
3434;BME280;1730;41.932;25.548;2022-08-05T00:25:16;99121.72;;;20.58;100.00
3434;BME280;1730;41.932;25.548;2022-08-05T00:27:42;99099.31;;;20.67;100.00
3434;BME280;1730;41.932;25.548;2022-08-05T00:30:08;99127.34;;;20.69;100.00
3434;BME280;1730;41.932;25.548;2022-08-05T00:32:34;99092.22;;;20.60;100.00
3434;BME280;1730;41.932;25.548;2022-08-05T00:35:00;99106.81;;;20.54;100.00
3434;BME280;1730;41.932;25.548;2022-08-05T00:37:26;98962.91;;;19.52;100.00
3434;BME280;1730;41.932;25.548;2022-08-05T00:39:53;99140.13;;;20.51;100.00
3434;BME280;1730;41.932;25.548;2022-08-05T00:42:33;99125.16;;;20.53;100.00
3434;BME280;1730;41.932;25.548;2022-08-05T00:45:03;99198.50;;;20.51;100.00
3434;BME280;1730;41.932;25.548;2022-08-05T00:47:29;99111.59;;;20.40;100.00
3434;BME280;1730;41.932;25.548;2022-08-05T00:49:55;99109.63;;;20.47;100.00
3434;BME280;1730;41.932;25.548;2022-08-05T00:52:20;99115.75;;;20.43;100.00
3434;BME280;1730;41.932;25.548;2022-08-05T00:54:47;99109.34;;;20.55;100.00
3434;BME280;1730;41.932;25.548;2022-08-05T00:57:14;99128.62;;;20.42;100.00
3434;BME280;1730;41.932;25.548;2022-08-05T00:59:39;99108.56;;;20.48;100.00
3434;BME280;1730;41.932;25.548;2022-08-05T01:02:05;98954.03;;;19.57;100.00
3434;BME280;1730;41.932;25.548;2022-08-05T01:04:31;99143.81;;;20.38;100.00
3434;BME280;1730;41.932;25.548;2022-08-05T01:06:57;99128.09;;;20.20;100.00
3434;BME280;1730;41.932;25.548;2022-08-05T01:09:23;99119.25;;;20.18;100.00
3434;BME280;1730;41.932;25.548;2022-08-05T01:11:51;98971.69;;;19.16;100.00
3434;BME280;1730;41.932;25.548;2022-08-05T01:14:38;99150.00;;;20.27;100.00
3434;BME280;1730;41.932;25.548;2022-08-05T01:17:08;99179.28;;;20.27;100.00
3434;BME280;1730;41.932;25.548;2022-08-05T01:19:41;99135.22;;;20.28;100.00
3434;BME280;1730;41.932;25.548;2022-08-05T01:30:25;99188.81;;;20.11;100.00
3434;BME280;1730;41.932;25.548;2022-08-05T01:32:54;99159.62;;;19.98;100.00
3434;BME280;1730;41.932;25.548;2022-08-05T01:35:24;99169.72;;;19.98;100.00
3434;BME280;1730;41.932;25.548;2022-08-05T01:37:55;99130.22;;;19.87;100.00
3434;BME280;1730;41.932;25.548;2022-08-05T01:40:25;99124.47;;;19.95;100.00
3434;BME280;1730;41.932;25.548;2022-08-05T01:42:54;99129.31;;;20.00;100.00
3434;BME280;1730;41.932;25.548;2022-08-05T01:45:21;99146.22;;;19.84;100.00
3434;BME280;1730;41.932;25.548;2022-08-05T01:47:49;99011.81;;;18.65;100.00
3434;BME280;1730;41.932;25.548;2022-08-05T01:50:27;99138.69;;;19.72;100.00
3434;BME280;1730;41.932;25.548;2022-08-05T01:52:56;99129.00;;;19.76;100.00
3434;BME280;1730;41.932;25.548;2022-08-05T01:55:24;99142.47;;;19.71;100.00
3434;BME280;1730;41.932;25.548;2022-08-05T01:57:52;99159.50;;;19.80;100.00
3434;BME280;1730;41.932;25.548;2022-08-05T02:00:19;98938.72;;;18.40;100.00
3434;BME280;1730;41.932;25.548;2022-08-05T02:02:52;99160.09;;;19.89;100.00
3434;BME280;1730;41.932;25.548;2022-08-05T02:05:24;99157.16;;;19.84;100.00
3434;BME280;1730;41.932;25.548;2022-08-05T02:07:56;99148.94;;;19.90;100.00
3434;BME280;1730;41.932;25.548;2022-08-05T02:10:24;99047.44;;;18.96;100.00
3434;BME280;1730;41.932;25.548;2022-08-05T02:12:58;99192.97;;;19.82;100.00
3434;BME280;1730;41.932;25.548;2022-08-05T02:15:28;99015.34;;;18.78;100.00
3434;BME280;1730;41.932;25.548;2022-08-05T02:18:02;99152.72;;;19.89;100.00
3434;BME280;1730;41.932;25.548;2022-08-05T02:20:33;99158.62;;;19.86;100.00
3434;BME280;1730;41.932;25.548;2022-08-05T02:23:06;99198.84;;;19.79;100.00
3434;BME280;1730;41.932;25.548;2022-08-05T02:25:34;99156.56;;;19.75;100.00
3434;BME280;1730;41.932;25.548;2022-08-05T02:28:02;98983.12;;;18.94;100.00
3434;BME280;1730;41.932;25.548;2022-08-05T02:30:47;99194.88;;;19.82;100.00
3434;BME280;1730;41.932;25.548;2022-08-05T02:33:17;99155.25;;;19.91;100.00
3434;BME280;1730;41.932;25.548;2022-08-05T02:35:45;99196.50;;;19.89;100.00
3434;BME280;1730;41.932;25.548;2022-08-05T02:38:11;99008.81;;;18.86;100.00
3434;BME280;1730;41.932;25.548;2022-08-05T02:40:41;99165.97;;;19.92;100.00
3434;BME280;1730;41.932;25.548;2022-08-05T02:43:10;99103.88;;;19.48;100.00
3434;BME280;1730;41.932;25.548;2022-08-05T02:45:38;99166.22;;;19.84;100.00
3434;BME280;1730;41.932;25.548;2022-08-05T02:48:06;99180.06;;;19.96;100.00
3434;BME280;1730;41.932;25.548;2022-08-05T02:50:32;99181.97;;;19.89;100.00
3434;BME280;1730;41.932;25.548;2022-08-05T02:52:58;99207.44;;;19.96;100.00
3434;BME280;1730;41.932;25.548;2022-08-05T02:55:26;98323.69;;;14.84;100.00
3434;BME280;1730;41.932;25.548;2022-08-05T02:57:53;99162.81;;;19.89;100.00
3434;BME280;1730;41.932;25.548;2022-08-05T03:00:19;99167.72;;;19.80;100.00
3434;BME280;1730;41.932;25.548;2022-08-05T03:02:46;99190.50;;;19.67;100.00
3434;BME280;1730;41.932;25.548;2022-08-05T03:05:14;99173.81;;;19.82;100.00
3434;BME280;1730;41.932;25.548;2022-08-05T03:07:41;99210.00;;;19.84;100.00
3434;BME280;1730;41.932;25.548;2022-08-05T03:10:10;99202.22;;;19.88;100.00
3434;BME280;1730;41.932;25.548;2022-08-05T03:12:39;99174.66;;;19.83;100.00
3434;BME280;1730;41.932;25.548;2022-08-05T03:15:07;99156.22;;;19.58;100.00
3434;BME280;1730;41.932;25.548;2022-08-05T03:17:34;99170.19;;;19.88;100.00
3434;BME280;1730;41.932;25.548;2022-08-05T03:20:00;99230.41;;;19.88;100.00
3434;BME280;1730;41.932;25.548;2022-08-05T03:22:26;99178.41;;;19.88;100.00
3434;BME280;1730;41.932;25.548;2022-08-05T03:24:52;99210.47;;;19.74;100.00
3434;BME280;1730;41.932;25.548;2022-08-05T03:27:19;99174.66;;;19.76;100.00
3434;BME280;1730;41.932;25.548;2022-08-05T03:29:45;99180.53;;;19.86;100.00
3434;BME280;1730;41.932;25.548;2022-08-05T03:32:12;99201.34;;;19.94;100.00
3434;BME280;1730;41.932;25.548;2022-08-05T03:34:40;99226.81;;;19.94;100.00
3434;BME280;1730;41.932;25.548;2022-08-05T03:37:06;99177.53;;;20.01;100.00
3434;BME280;1730;41.932;25.548;2022-08-05T03:39:31;99200.00;;;20.09;100.00
3434;BME280;1730;41.932;25.548;2022-08-05T03:41:57;99021.50;;;19.18;100.00
3434;BME280;1730;41.932;25.548;2022-08-05T03:44:23;99184.38;;;20.16;100.00
3434;BME280;1730;41.932;25.548;2022-08-05T03:46:49;99200.47;;;20.44;100.00
3434;BME280;1730;41.932;25.548;2022-08-05T03:49:15;99037.56;;;19.91;100.00
3434;BME280;1730;41.932;25.548;2022-08-05T03:54:35;99189.09;;;20.97;100.00
3434;BME280;1730;41.932;25.548;2022-08-05T03:57:04;99186.09;;;21.48;100.00
3434;BME280;1730;41.932;25.548;2022-08-05T03:59:41;99145.75;;;21.30;100.00
3434;BME280;1730;41.932;25.548;2022-08-05T04:02:09;99139.97;;;21.38;100.00
3434;BME280;1730;41.932;25.548;2022-08-05T04:04:37;99168.41;;;21.62;100.00
3434;BME280;1730;41.932;25.548;2022-08-05T04:09:30;99124.81;;;21.54;100.00
3434;BME280;1730;41.932;25.548;2022-08-05T04:11:56;99131.13;;;21.54;100.00
3434;BME280;1730;41.932;25.548;2022-08-05T04:14:24;99140.88;;;22.17;100.00
3434;BME280;1730;41.932;25.548;2022-08-05T04:16:50;99123.97;;;22.31;100.00
3434;BME280;1730;41.932;25.548;2022-08-05T04:19:16;99139.69;;;22.54;100.00
3434;BME280;1730;41.932;25.548;2022-08-05T04:21:42;99103.88;;;22.96;100.00
3434;BME280;1730;41.932;25.548;2022-08-05T04:24:07;99042.66;;;23.12;100.00
3434;BME280;1730;41.932;25.548;2022-08-05T04:26:33;98697.28;;;21.09;100.00
3434;BME280;1730;41.932;25.548;2022-08-05T04:28:59;99077.53;;;23.86;100.00
3434;BME280;1730;41.932;25.548;2022-08-05T04:31:26;99071.78;;;24.33;100.00
3434;BME280;1730;41.932;25.548;2022-08-05T04:33:51;99072.34;;;24.85;100.00
3434;BME280;1730;41.932;25.548;2022-08-05T04:36:17;99096.91;;;25.20;100.00
3434;BME280;1730;41.932;25.548;2022-08-05T04:38:44;99059.25;;;25.52;100.00
3434;BME280;1730;41.932;25.548;2022-08-05T04:41:09;99055.87;;;25.93;100.00
3434;BME280;1730;41.932;25.548;2022-08-05T04:43:36;98900.84;;;24.88;100.00
3434;BME280;1730;41.932;25.548;2022-08-05T04:46:02;99045.88;;;26.78;100.00
3434;BME280;1730;41.932;25.548;2022-08-05T04:48:28;98916.66;;;26.31;100.00
3434;BME280;1730;41.932;25.548;2022-08-05T04:50:55;98991.03;;;26.70;100.00
3434;BME280;1730;41.932;25.548;2022-08-05T04:53:20;99032.84;;;27.72;100.00
3434;BME280;1730;41.932;25.548;2022-08-05T04:55:46;99052.38;;;27.41;100.00
3434;BME280;1730;41.932;25.548;2022-08-05T04:58:14;98588.47;;;24.81;100.00
3434;BME280;1730;41.932;25.548;2022-08-05T05:00:40;99028.41;;;27.71;100.00
3434;BME280;1730;41.932;25.548;2022-08-05T05:03:07;98697.69;;;25.45;100.00
3434;BME280;1730;41.932;25.548;2022-08-05T05:05:33;99024.91;;;28.67;100.00
3434;BME280;1730;41.932;25.548;2022-08-05T05:08:07;99047.13;;;28.47;100.00
3434;BME280;1730;41.932;25.548;2022-08-05T05:10:44;99025.37;;;29.35;95.46
3434;BME280;1730;41.932;25.548;2022-08-05T05:13:13;99033.09;;;29.53;90.68
3434;BME280;1730;41.932;25.548;2022-08-05T05:15:39;98694.47;;;27.39;86.05
3434;BME280;1730;41.932;25.548;2022-08-05T05:18:06;99027.06;;;29.85;80.23
3434;BME280;1730;41.932;25.548;2022-08-05T05:20:33;99021.16;;;29.47;78.02
3434;BME280;1730;41.932;25.548;2022-08-05T05:23:00;98841.63;;;27.72;80.37
3434;BME280;1730;41.932;25.548;2022-08-05T05:25:27;99024.09;;;28.11;85.08
3434;BME280;1730;41.932;25.548;2022-08-05T05:27:53;99024.09;;;28.56;85.34
3434;BME280;1730;41.932;25.548;2022-08-05T05:30:21;99023.22;;;28.96;83.22
3434;BME280;1730;41.932;25.548;2022-08-05T05:32:48;99020.19;;;28.93;81.19
3434;BME280;1730;41.932;25.548;2022-08-05T05:35:14;99018.16;;;29.19;78.95
3434;BME280;1730;41.932;25.548;2022-08-05T05:40:18;99046.19;;;29.42;77.30
3434;BME280;1730;41.932;25.548;2022-08-05T05:42:47;98721.22;;;28.19;72.22
3434;BME280;1730;41.932;25.548;2022-08-05T05:45:13;99020.13;;;30.65;68.83
3434;BME280;1730;41.932;25.548;2022-08-05T05:47:39;98947.09;;;29.67;68.57
3434;BME280;1730;41.932;25.548;2022-08-05T05:50:07;99017.28;;;30.70;80.03
3434;BME280;1730;41.932;25.548;2022-08-05T05:52:33;99023.06;;;31.31;67.63
3434;BME280;1730;41.932;25.548;2022-08-05T05:54:59;99024.41;;;31.34;65.30
3434;BME280;1730;41.932;25.548;2022-08-05T05:57:25;99032.00;;;31.76;63.11
3434;BME280;1730;41.932;25.548;2022-08-05T05:59:51;99022.22;;;31.07;65.77
3434;BME280;1730;41.932;25.548;2022-08-05T06:02:16;98989.28;;;31.14;64.58
3434;BME280;1730;41.932;25.548;2022-08-05T06:04:42;99023.59;;;31.33;65.55
3434;BME280;1730;41.932;25.548;2022-08-05T06:07:08;99006.78;;;31.20;66.08
3434;BME280;1730;41.932;25.548;2022-08-05T06:09:33;99013.66;;;30.99;69.15
3434;BME280;1730;41.932;25.548;2022-08-05T06:11:59;99021.69;;;31.77;65.63
3434;BME280;1730;41.932;25.548;2022-08-05T06:14:25;99011.75;;;31.89;64.86
3434;BME280;1730;41.932;25.548;2022-08-05T06:16:50;99023.66;;;32.13;63.03
3434;BME280;1730;41.932;25.548;2022-08-05T06:19:16;99018.66;;;31.25;67.74
3434;BME280;1730;41.932;25.548;2022-08-05T06:21:41;99021.84;;;31.19;67.67
3434;BME280;1730;41.932;25.548;2022-08-05T06:24:07;99023.06;;;31.55;66.99
3434;BME280;1730;41.932;25.548;2022-08-05T06:26:33;99032.00;;;31.76;64.43
3434;BME280;1730;41.932;25.548;2022-08-05T06:29:00;99028.06;;;32.19;61.41
3434;BME280;1730;41.932;25.548;2022-08-05T06:31:26;99034.31;;;31.69;63.02
3434;BME280;1730;41.932;25.548;2022-08-05T06:33:52;99019.97;;;31.81;61.37
3434;BME280;1730;41.932;25.548;2022-08-05T06:36:18;99034.00;;;31.94;60.07
3434;BME280;1730;41.932;25.548;2022-08-05T06:38:43;99044.41;;;31.65;62.38
3434;BME280;1730;41.932;25.548;2022-08-05T06:41:09;99035.09;;;30.98;61.69
3434;BME280;1730;41.932;25.548;2022-08-05T06:43:35;99031.75;;;30.72;64.93
3434;BME280;1730;41.932;25.548;2022-08-05T06:46:01;99026.16;;;30.05;64.84
3434;BME280;1730;41.932;25.548;2022-08-05T06:48:31;99045.88;;;30.47;65.28
3434;BME280;1730;41.932;25.548;2022-08-05T06:50:59;99044.44;;;30.55;61.85
3434;BME280;1730;41.932;25.548;2022-08-05T06:53:24;98825.72;;;29.57;59.18
3434;BME280;1730;41.932;25.548;2022-08-05T06:55:50;98838.84;;;30.14;58.57
3434;BME280;1730;41.932;25.548;2022-08-05T06:58:18;99014.19;;;31.06;57.17
3434;BME280;1730;41.932;25.548;2022-08-05T07:00:46;98490.75;;;28.26;56.17
3434;BME280;1730;41.932;25.548;2022-08-05T07:03:12;98850.13;;;29.99;55.63
3434;BME280;1730;41.932;25.548;2022-08-05T07:08:14;99038.59;;;31.14;56.47
3434;BME280;1730;41.932;25.548;2022-08-05T07:10:40;99044.12;;;31.19;56.34
3434;BME280;1730;41.932;25.548;2022-08-05T07:13:12;99048.22;;;30.98;58.05
3434;BME280;1730;41.932;25.548;2022-08-05T07:18:52;99036.91;;;31.84;54.93
3434;BME280;1730;41.932;25.548;2022-08-05T07:21:26;99044.25;;;31.33;56.35
3434;BME280;1730;41.932;25.548;2022-08-05T07:23:56;98563.50;;;28.12;56.55
3434;BME280;1730;41.932;25.548;2022-08-05T07:26:43;98584.00;;;28.55;55.31
3434;BME280;1730;41.932;25.548;2022-08-05T07:31:44;99043.13;;;31.57;57.11
3434;BME280;1730;41.932;25.548;2022-08-05T07:34:10;99050.75;;;31.23;56.98
3434;BME280;1730;41.932;25.548;2022-08-05T07:36:35;98955.72;;;30.72;57.97
3434;BME280;1730;41.932;25.548;2022-08-05T07:39:06;99049.63;;;30.95;59.01
3434;BME280;1730;41.932;25.548;2022-08-05T07:41:33;99046.59;;;31.20;59.43
3434;BME280;1730;41.932;25.548;2022-08-05T07:43:59;98792.72;;;29.79;59.55
3434;BME280;1730;41.932;25.548;2022-08-05T07:46:27;98955.97;;;30.99;56.68
3434;BME280;1730;41.932;25.548;2022-08-05T07:48:54;99039.91;;;31.69;56.54
3434;BME280;1730;41.932;25.548;2022-08-05T07:51:20;99037.06;;;31.26;58.13
3434;BME280;1730;41.932;25.548;2022-08-05T07:53:46;98924.47;;;31.27;56.34
3434;BME280;1730;41.932;25.548;2022-08-05T07:56:12;99061.69;;;32.28;56.34
3434;BME280;1730;41.932;25.548;2022-08-05T07:58:38;99054.34;;;31.28;60.57
3434;BME280;1730;41.932;25.548;2022-08-05T08:01:03;99039.56;;;30.70;62.03
3434;BME280;1730;41.932;25.548;2022-08-05T08:03:30;98685.56;;;29.00;60.00
3434;BME280;1730;41.932;25.548;2022-08-05T08:05:55;98920.19;;;30.87;59.70
3434;BME280;1730;41.932;25.548;2022-08-05T08:08:23;99030.44;;;31.46;59.26
3434;BME280;1730;41.932;25.548;2022-08-05T08:10:48;98933.81;;;30.65;60.06
3434;BME280;1730;41.932;25.548;2022-08-05T08:13:14;98662.66;;;28.80;60.05
3434;BME280;1730;41.932;25.548;2022-08-05T08:15:40;99028.28;;;31.14;61.00
3434;BME280;1730;41.932;25.548;2022-08-05T08:18:06;98705.13;;;29.14;59.23
3434;BME280;1730;41.932;25.548;2022-08-05T08:20:31;99028.41;;;31.28;59.93
3434;BME280;1730;41.932;25.548;2022-08-05T08:22:58;98907.03;;;30.40;61.39
3434;BME280;1730;41.932;25.548;2022-08-05T08:25:25;98678.31;;;29.38;59.74
3434;BME280;1730;41.932;25.548;2022-08-05T08:27:51;99022.50;;;31.58;57.38
3434;BME280;1730;41.932;25.548;2022-08-05T08:30:16;99072.31;;;31.41;58.02
3434;BME280;1730;41.932;25.548;2022-08-05T08:32:42;99019.16;;;31.56;57.95
3434;BME280;1730;41.932;25.548;2022-08-05T08:35:08;98982.69;;;31.05;57.74
3434;BME280;1730;41.932;25.548;2022-08-05T08:37:34;99020.72;;;31.20;59.22
3434;BME280;1730;41.932;25.548;2022-08-05T08:40:00;99016.94;;;31.29;56.00
3434;BME280;1730;41.932;25.548;2022-08-05T08:42:26;98768.69;;;29.26;58.30
3434;BME280;1730;41.932;25.548;2022-08-05T08:44:54;98917.75;;;29.94;60.02
3434;BME280;1730;41.932;25.548;2022-08-05T08:47:25;98974.00;;;30.83;60.09
3434;BME280;1730;41.932;25.548;2022-08-05T08:49:54;98757.09;;;29.52;59.01
3434;BME280;1730;41.932;25.548;2022-08-05T08:52:30;98877.12;;;30.27;57.61
3434;BME280;1730;41.932;25.548;2022-08-05T08:54:56;98998.25;;;31.54;57.06
3434;BME280;1730;41.932;25.548;2022-08-05T08:57:22;98876.44;;;30.64;55.28
3434;BME280;1730;41.932;25.548;2022-08-05T08:59:49;98866.63;;;30.48;56.64
3434;BME280;1730;41.932;25.548;2022-08-05T09:02:15;98944.16;;;31.12;55.97
3434;BME280;1730;41.932;25.548;2022-08-05T09:04:43;98914.91;;;31.52;53.94
3434;BME280;1730;41.932;25.548;2022-08-05T09:07:10;98998.44;;;31.62;55.33
3434;BME280;1730;41.932;25.548;2022-08-05T09:09:36;98995.84;;;31.90;53.19
3434;BME280;1730;41.932;25.548;2022-08-05T09:12:03;98995.44;;;31.59;55.19
3434;BME280;1730;41.932;25.548;2022-08-05T09:14:33;98989.84;;;31.77;55.18
3434;BME280;1730;41.932;25.548;2022-08-05T09:17:00;98811.34;;;30.60;53.91
3434;BME280;1730;41.932;25.548;2022-08-05T09:19:26;98743.59;;;30.88;51.57
3434;BME280;1730;41.932;25.548;2022-08-05T09:21:52;98996.41;;;31.87;52.73
3434;BME280;1730;41.932;25.548;2022-08-05T09:24:18;98862.22;;;31.13;54.53
3434;BME280;1730;41.932;25.548;2022-08-05T09:26:50;98630.22;;;30.14;52.83
3434;BME280;1730;41.932;25.548;2022-08-05T09:29:16;98962.34;;;31.71;54.23
3434;BME280;1730;41.932;25.548;2022-08-05T09:31:42;98980.03;;;32.36;52.00
3434;BME280;1730;41.932;25.548;2022-08-05T09:34:10;98965.91;;;32.46;52.34
3434;BME280;1730;41.932;25.548;2022-08-05T09:36:42;98982.03;;;32.49;51.48
3434;BME280;1730;41.932;25.548;2022-08-05T09:39:11;98977.56;;;32.67;51.99
3434;BME280;1730;41.932;25.548;2022-08-05T09:41:58;98755.66;;;31.21;51.36
3434;BME280;1730;41.932;25.548;2022-08-05T09:44:37;98953.91;;;32.46;52.09
3434;BME280;1730;41.932;25.548;2022-08-05T09:47:39;98961.50;;;32.27;52.61
3434;BME280;1730;41.932;25.548;2022-08-05T09:50:05;98854.09;;;31.36;54.86
3434;BME280;1730;41.932;25.548;2022-08-05T09:52:33;98964.22;;;32.13;52.80
3434;BME280;1730;41.932;25.548;2022-08-05T09:55:06;98947.03;;;31.26;54.77
3434;BME280;1730;41.932;25.548;2022-08-05T09:57:40;98980.91;;;31.81;52.40
3434;BME280;1730;41.932;25.548;2022-08-05T10:00:17;98944.41;;;32.14;51.49
3434;BME280;1730;41.932;25.548;2022-08-05T10:02:46;98950.25;;;32.64;50.80
3434;BME280;1730;41.932;25.548;2022-08-05T10:05:23;98931.94;;;32.72;46.31
3434;BME280;1730;41.932;25.548;2022-08-05T10:07:51;98930.72;;;32.64;46.55
3434;BME280;1730;41.932;25.548;2022-08-05T10:10:22;98955.16;;;32.53;46.81
3434;BME280;1730;41.932;25.548;2022-08-05T10:12:50;98939.00;;;32.96;45.59
3434;BME280;1730;41.932;25.548;2022-08-05T10:18:18;98906.00;;;32.98;42.96
3434;BME280;1730;41.932;25.548;2022-08-05T10:23:21;98891.94;;;33.67;42.79
3434;BME280;1730;41.932;25.548;2022-08-05T10:25:47;98869.12;;;33.10;42.07
3434;BME280;1730;41.932;25.548;2022-08-05T10:28:14;98817.22;;;32.82;42.12
3434;BME280;1730;41.932;25.548;2022-08-05T10:30:40;98909.09;;;33.87;41.27
3434;BME280;1730;41.932;25.548;2022-08-05T10:33:06;98903.84;;;33.94;41.55
3434;BME280;1730;41.932;25.548;2022-08-05T10:35:34;98810.34;;;33.15;41.48
3434;BME280;1730;41.932;25.548;2022-08-05T10:38:00;98911.47;;;33.31;42.37
3434;BME280;1730;41.932;25.548;2022-08-05T10:40:29;98729.25;;;31.97;42.43
3434;BME280;1730;41.932;25.548;2022-08-05T10:45:58;98901.34;;;33.07;42.50
3434;BME280;1730;41.932;25.548;2022-08-05T10:51:12;98902.28;;;33.17;43.14
3434;BME280;1730;41.932;25.548;2022-08-05T10:54:00;98896.25;;;33.23;43.43
3434;BME280;1730;41.932;25.548;2022-08-05T10:56:28;98895.03;;;33.65;42.54
3434;BME280;1730;41.932;25.548;2022-08-05T11:04:03;98900.53;;;33.92;42.44
3434;BME280;1730;41.932;25.548;2022-08-05T11:06:29;98878.00;;;33.75;41.09
3434;BME280;1730;41.932;25.548;2022-08-05T11:11:45;98886.16;;;33.85;40.84
3434;BME280;1730;41.932;25.548;2022-08-05T11:14:12;98746.94;;;33.24;40.57
3434;BME280;1730;41.932;25.548;2022-08-05T11:16:38;98862.50;;;34.75;39.28
3434;BME280;1730;41.932;25.548;2022-08-05T11:19:23;98856.59;;;34.46;40.03
3434;BME280;1730;41.932;25.548;2022-08-05T11:21:50;98859.44;;;34.24;39.96
3434;BME280;1730;41.932;25.548;2022-08-05T11:24:20;98872.47;;;34.28;39.92
3434;BME280;1730;41.932;25.548;2022-08-05T11:26:49;98859.13;;;34.56;38.76
3434;BME280;1730;41.932;25.548;2022-08-05T11:29:38;98643.78;;;32.78;39.21
3434;BME280;1730;41.932;25.548;2022-08-05T11:32:42;98859.00;;;34.61;39.09
3434;BME280;1730;41.932;25.548;2022-08-05T11:38:12;98708.28;;;33.71;38.04
3434;BME280;1730;41.932;25.548;2022-08-05T11:41:02;98845.69;;;34.75;38.54
3434;BME280;1730;41.932;25.548;2022-08-05T11:43:30;98752.59;;;34.00;37.87
3434;BME280;1730;41.932;25.548;2022-08-05T11:45:56;98834.19;;;34.77;38.05
3434;BME280;1730;41.932;25.548;2022-08-05T11:48:22;98842.59;;;34.86;38.16
3434;BME280;1730;41.932;25.548;2022-08-05T11:50:49;98623.81;;;33.29;38.33
3434;BME280;1730;41.932;25.548;2022-08-05T11:53:16;98840.94;;;34.84;38.00
3434;BME280;1730;41.932;25.548;2022-08-05T11:55:59;98649.50;;;33.40;38.15
3434;BME280;1730;41.932;25.548;2022-08-05T11:58:34;98820.06;;;34.99;37.66
3434;BME280;1730;41.932;25.548;2022-08-05T12:01:07;98822.91;;;35.16;36.97
3434;BME280;1730;41.932;25.548;2022-08-05T12:03:59;98632.41;;;34.12;37.25
3434;BME280;1730;41.932;25.548;2022-08-05T12:06:26;98836.81;;;35.47;36.72
3434;BME280;1730;41.932;25.548;2022-08-05T12:08:57;98820.72;;;35.05;36.52
3434;BME280;1730;41.932;25.548;2022-08-05T12:11:28;98697.50;;;33.78;37.78
3434;BME280;1730;41.932;25.548;2022-08-05T12:14:03;98652.09;;;34.29;36.83
3434;BME280;1730;41.932;25.548;2022-08-05T12:16:34;98812.06;;;35.49;36.50
3434;BME280;1730;41.932;25.548;2022-08-05T12:19:00;98729.53;;;35.16;35.92
3434;BME280;1730;41.932;25.548;2022-08-05T12:21:31;98683.94;;;34.59;35.95
3434;BME280;1730;41.932;25.548;2022-08-05T12:24:03;98815.44;;;35.03;36.70
3434;BME280;1730;41.932;25.548;2022-08-05T12:28:58;98812.06;;;34.36;37.97
3434;BME280;1730;41.932;25.548;2022-08-05T12:31:24;98802.13;;;34.21;38.08
3434;BME280;1730;41.932;25.548;2022-08-05T12:33:49;98697.37;;;33.61;38.62
3434;BME280;1730;41.932;25.548;2022-08-05T12:36:15;98706.37;;;33.80;38.17
3434;BME280;1730;41.932;25.548;2022-08-05T12:38:42;98690.06;;;33.51;38.36
3434;BME280;1730;41.932;25.548;2022-08-05T12:41:10;98759.97;;;33.95;38.65
3434;BME280;1730;41.932;25.548;2022-08-05T12:43:57;98725.72;;;33.45;38.59
3434;BME280;1730;41.932;25.548;2022-08-05T12:46:26;98781.09;;;33.79;38.15
3434;BME280;1730;41.932;25.548;2022-08-05T12:48:56;98792.13;;;34.77;36.92
3434;BME280;1730;41.932;25.548;2022-08-05T12:54:25;98773.94;;;35.31;35.59
3434;BME280;1730;41.932;25.548;2022-08-05T12:59:23;98774.72;;;34.49;37.24
3434;BME280;1730;41.932;25.548;2022-08-05T13:04:18;98792.00;;;34.82;37.08
3434;BME280;1730;41.932;25.548;2022-08-05T13:06:44;98770.00;;;34.27;37.71
3434;BME280;1730;41.932;25.548;2022-08-05T13:09:12;98706.16;;;34.47;37.36
3434;BME280;1730;41.932;25.548;2022-08-05T13:11:40;98772.22;;;34.96;36.47
3434;BME280;1730;41.932;25.548;2022-08-05T13:14:24;98726.22;;;34.88;35.97
3434;BME280;1730;41.932;25.548;2022-08-05T13:16:56;98757.69;;;34.94;36.28
3434;BME280;1730;41.932;25.548;2022-08-05T13:19:25;98760.69;;;34.97;36.13
3434;BME280;1730;41.932;25.548;2022-08-05T13:21:51;98755.38;;;34.70;36.49
3434;BME280;1730;41.932;25.548;2022-08-05T13:24:17;98678.88;;;34.13;36.86
3434;BME280;1730;41.932;25.548;2022-08-05T13:26:45;98755.22;;;34.75;36.84
3434;BME280;1730;41.932;25.548;2022-08-05T13:29:11;98750.00;;;34.51;35.64
3434;BME280;1730;41.932;25.548;2022-08-05T13:31:37;98750.09;;;34.68;35.88
3434;BME280;1730;41.932;25.548;2022-08-05T13:34:03;98746.69;;;35.14;36.05
3434;BME280;1730;41.932;25.548;2022-08-05T13:36:29;98621.28;;;34.37;36.23
3434;BME280;1730;41.932;25.548;2022-08-05T13:38:55;98747.50;;;35.06;36.61
3434;BME280;1730;41.932;25.548;2022-08-05T13:41:22;98654.78;;;34.60;36.01
3434;BME280;1730;41.932;25.548;2022-08-05T13:43:47;98737.75;;;34.78;36.84
3434;BME280;1730;41.932;25.548;2022-08-05T13:46:16;98763.66;;;34.35;37.37
3434;BME280;1730;41.932;25.548;2022-08-05T13:48:42;98738.44;;;34.35;37.57
3434;BME280;1730;41.932;25.548;2022-08-05T13:51:10;98737.25;;;34.28;37.93
3434;BME280;1730;41.932;25.548;2022-08-05T13:53:36;98731.97;;;34.26;37.56
3434;BME280;1730;41.932;25.548;2022-08-05T13:56:05;98723.16;;;33.58;38.08
3434;BME280;1730;41.932;25.548;2022-08-05T13:58:33;98187.19;;;30.09;37.71
3434;BME280;1730;41.932;25.548;2022-08-05T14:00:58;98526.38;;;32.47;37.30
3434;BME280;1730;41.932;25.548;2022-08-05T14:03:24;98618.84;;;33.57;36.69
3434;BME280;1730;41.932;25.548;2022-08-05T14:05:52;98630.81;;;34.19;37.21
3434;BME280;1730;41.932;25.548;2022-08-05T14:08:51;98709.41;;;34.88;35.97
3434;BME280;1730;41.932;25.548;2022-08-05T14:11:18;98366.28;;;32.91;35.11